Time;durP1;ratioP1;P1;durP2;ratioP2;P2;SDS_P1;SDS_P2;PMS_P1;PMS_P2;Temp;Humidity;BMP_temperature;BMP_pressure;BME280_temperature;BME280_humidity;BME280_pressure;Samples;Min_cycle;Max_cycle;Signal;HPM_P1;HPM_P2
2023/08/28 00:00:23;;;;;;;4.70;3.50;;;;;;;21.75;94.09;99819.21;105677;1263;98910;-80
2023/08/28 00:03:29;;;;;;;3.50;2.90;;;;;;;21.64;94.11;99813.20;106136;1263;97959;-80
2023/08/28 00:06:15;;;;;;;2.80;2.20;;;;;;;21.53;93.99;99805.17;106139;1264;103032;-79
2023/08/28 00:09:00;;;;;;;2.80;2.60;;;;;;;21.44;94.27;99815.67;106389;1261;100432;-81
2023/08/28 00:11:45;;;;;;;3.90;3.00;;;;;;;21.35;94.68;99836.50;106092;1260;107151;-79
2023/08/28 00:14:31;;;;;;;3.00;2.50;;;;;;;21.30;94.94;99857.27;106050;1263;98039;-80
2023/08/28 00:17:17;;;;;;;2.60;2.40;;;;;;;21.22;95.24;99869.16;106008;1261;98433;-79
2023/08/28 00:20:07;;;;;;;3.40;3.10;;;;;;;21.14;95.58;99877.00;106079;1261;101428;-79
2023/08/28 00:22:53;;;;;;;5.10;3.50;;;;;;;21.06;96.28;99899.92;106096;1264;99177;-80
2023/08/28 00:25:39;;;;;;;3.30;2.90;;;;;;;21.00;97.08;99913.63;106068;1263;97975;-79
2023/08/28 00:28:24;;;;;;;3.00;2.40;;;;;;;20.97;97.58;99905.08;106293;1259;97710;-80
2023/08/28 00:31:10;;;;;;;4.20;3.20;;;;;;;20.92;97.59;99865.44;106248;1260;98392;-79
2023/08/28 00:33:56;;;;;;;4.10;2.90;;;;;;;20.84;97.23;99856.11;106245;1261;103040;-80
2023/08/28 00:36:42;;;;;;;3.50;3.20;;;;;;;20.78;97.24;99860.14;106431;1260;99824;-79
2023/08/28 00:39:28;;;;;;;12.10;5.60;;;;;;;20.77;97.65;99850.52;106391;1261;98961;-80
2023/08/28 00:42:13;;;;;;;4.70;3.60;;;;;;;20.71;97.34;99851.10;106240;1259;97970;-80
2023/08/28 00:45:00;;;;;;;3.60;2.70;;;;;;;20.65;97.41;99841.14;106211;1260;292342;-80
2023/08/28 00:47:46;;;;;;;3.90;3.00;;;;;;;20.61;97.52;99837.87;106192;1260;101399;-80
2023/08/28 00:50:32;;;;;;;6.00;4.70;;;;;;;20.59;97.81;99853.53;106622;1260;99319;-79
2023/08/28 00:53:18;;;;;;;4.80;3.50;;;;;;;20.57;97.70;99897.45;108146;1260;106381;-80
2023/08/28 00:56:04;;;;;;;5.00;3.50;;;;;;;20.51;97.96;99904.23;106105;1257;97981;-80
2023/08/28 00:58:49;;;;;;;5.70;2.90;;;;;;;20.46;97.99;99887.63;106179;1261;98590;-80
2023/08/28 01:01:35;;;;;;;5.20;3.00;;;;;;;20.40;97.84;99875.86;106224;1263;103933;-79
2023/08/28 01:04:21;;;;;;;3.90;3.40;;;;;;;20.39;98.45;99873.63;106271;1263;100327;-79
2023/08/28 01:07:30;;;;;;;6.00;3.50;;;;;;;20.38;98.34;99881.19;105630;1263;98062;-80
2023/08/28 01:10:21;;;;;;;6.10;3.50;;;;;;;20.35;98.34;99891.40;105765;1263;97964;-80
2023/08/28 01:13:15;;;;;;;4.30;2.80;;;;;;;20.28;98.43;99909.23;106262;1261;98551;-80
2023/08/28 01:16:03;;;;;;;5.70;2.80;;;;;;;20.26;98.90;99907.42;106298;1263;101455;-80
2023/08/28 01:18:49;;;;;;;5.00;3.40;;;;;;;20.23;98.68;99909.27;105977;1260;99225;-79
2023/08/28 01:21:34;;;;;;;5.90;3.40;;;;;;;20.18;99.03;99913.84;106167;1263;97950;-81
2023/08/28 01:24:24;;;;;;;4.20;3.40;;;;;;;20.16;98.91;99897.02;106253;1263;97875;-81
2023/08/28 01:27:10;;;;;;;4.50;3.10;;;;;;;20.10;99.31;99886.45;105696;1263;98035;-80
2023/08/28 01:30:13;;;;;;;5.00;3.30;;;;;;;20.06;99.55;99887.95;106253;1261;102240;-80
2023/08/28 01:32:58;;;;;;;4.80;3.30;;;;;;;20.03;99.34;99902.56;105743;1260;100151;-80
2023/08/28 01:35:55;;;;;;;4.50;3.50;;;;;;;19.99;99.53;99911.09;105714;1263;98595;-79
2023/08/28 01:38:57;;;;;;;4.40;4.00;;;;;;;19.95;99.77;99911.94;106130;1267;97975;-80
2023/08/28 01:41:45;;;;;;;6.60;4.00;;;;;;;19.95;100.00;99912.69;105756;1263;98583;-80
2023/08/28 01:44:33;;;;;;;5.80;4.00;;;;;;;19.89;99.91;99907.98;105670;1264;102151;-80
2023/08/28 01:47:19;;;;;;;4.70;4.20;;;;;;;19.85;100.00;99896.17;106596;1257;99624;-80
2023/08/28 01:50:05;;;;;;;4.80;4.40;;;;;;;19.84;100.00;99903.88;105647;1261;97858;-80
2023/08/28 01:52:50;;;;;;;4.90;3.90;;;;;;;19.84;100.00;99906.82;105704;1262;99225;-81
2023/08/28 01:55:45;;;;;;;4.70;4.10;;;;;;;19.83;100.00;99907.36;105708;1258;98236;-80
2023/08/28 01:58:32;;;;;;;5.10;4.10;;;;;;;19.79;100.00;99901.09;106123;1257;101363;-80
2023/08/28 02:01:18;;;;;;;5.80;4.70;;;;;;;19.74;100.00;99905.58;106096;1264;99246;-79
2023/08/28 02:04:04;;;;;;;6.10;4.80;;;;;;;19.71;100.00;99900.55;105569;1258;97972;-79
2023/08/28 02:06:50;;;;;;;7.10;5.30;;;;;;;19.68;100.00;99911.23;105285;1263;98718;-79
2023/08/28 02:09:36;;;;;;;6.10;4.90;;;;;;;19.65;100.00;99931.22;105379;1260;97942;-78
2023/08/28 02:12:21;;;;;;;5.90;5.40;;;;;;;19.66;100.00;99929.65;106243;1258;102177;-80
2023/08/28 02:15:07;;;;;;;5.50;5.00;;;;;;;19.70;100.00;99920.86;106289;1258;99331;-80
2023/08/28 02:17:53;;;;;;;5.50;4.70;;;;;;;19.68;100.00;99914.77;105811;1261;98061;-80
2023/08/28 02:20:38;;;;;;;5.20;4.70;;;;;;;19.69;100.00;99917.38;106247;1262;98015;-80
2023/08/28 02:23:26;;;;;;;5.00;4.30;;;;;;;19.70;100.00;99914.18;105866;1257;97996;-79
2023/08/28 02:26:11;;;;;;;4.40;4.00;;;;;;;19.69;100.00;99899.39;105227;1264;102716;-79
2023/08/28 02:28:57;;;;;;;4.20;3.70;;;;;;;19.70;100.00;99903.86;105399;1259;99175;-79
2023/08/28 02:31:42;;;;;;;5.20;4.00;;;;;;;19.72;100.00;99910.39;105377;1263;99064;-79
2023/08/28 02:34:28;;;;;;;5.40;3.90;;;;;;;19.75;100.00;99912.96;105272;1260;97971;-79
2023/08/28 02:37:13;;;;;;;3.50;3.30;;;;;;;19.79;100.00;99916.46;105430;1263;97918;-79
2023/08/28 02:39:59;;;;;;;5.50;4.30;;;;;;;19.83;100.00;99919.27;105419;1264;102715;-79
2023/08/28 02:42:45;;;;;;;3.70;3.40;;;;;;;19.86;100.00;99913.67;105451;1258;99094;-79
2023/08/28 02:45:30;;;;;;;4.70;3.80;;;;;;;19.87;100.00;99925.21;105615;1261;97973;-79
2023/08/28 02:48:16;;;;;;;4.40;3.80;;;;;;;19.86;100.00;99933.73;105443;1260;98720;-79
2023/08/28 02:51:01;;;;;;;5.00;3.50;;;;;;;19.86;100.00;99937.00;105482;1261;97842;-80
2023/08/28 02:53:47;;;;;;;4.60;3.70;;;;;;;19.87;100.00;99934.13;105496;1262;102710;-78
2023/08/28 02:56:39;;;;;;;4.50;3.70;;;;;;;19.89;100.00;99933.98;105426;1261;99139;-81
2023/08/28 02:59:24;;;;;;;5.60;3.50;;;;;;;19.89;100.00;99944.58;105992;1261;101367;-78
2023/08/28 03:02:10;;;;;;;5.10;4.10;;;;;;;19.85;100.00;99956.19;105274;1258;97974;-79
2023/08/28 03:04:55;;;;;;;5.20;4.30;;;;;;;19.84;100.00;99963.63;105332;1263;98919;-80
2023/08/28 03:07:41;;;;;;;5.80;3.70;;;;;;;19.83;100.00;99966.93;105330;1263;101375;-78
2023/08/28 03:10:27;;;;;;;5.60;4.00;;;;;;;19.85;100.00;99966.95;105465;1261;99137;-79
2023/08/28 03:13:12;;;;;;;4.30;3.90;;;;;;;19.85;100.00;99963.90;105389;1264;99247;-79
2023/08/28 03:15:59;;;;;;;4.90;4.30;;;;;;;19.82;100.00;99980.08;105580;1261;98011;-79
2023/08/28 03:18:45;;;;;;;5.10;4.20;;;;;;;19.78;100.00;99987.66;105453;1263;98062;-79
2023/08/28 03:21:33;;;;;;;4.90;4.20;;;;;;;19.78;100.00;99979.84;105496;1260;102873;-78
2023/08/28 03:24:18;;;;;;;5.00;4.50;;;;;;;19.77;100.00;99972.11;105470;1261;99161;-79
2023/08/28 03:27:04;;;;;;;6.40;4.20;;;;;;;19.76;100.00;99970.15;105474;1262;97928;-79
2023/08/28 03:29:50;;;;;;;6.80;6.10;;;;;;;19.73;100.00;99968.06;105464;1260;97863;-79
2023/08/28 03:32:35;;;;;;;9.00;8.00;;;;;;;19.69;100.00;99973.31;105473;1261;99138;-79
2023/08/28 03:35:21;;;;;;;10.10;6.90;;;;;;;19.65;100.00;99977.41;105527;1263;102103;-79
2023/08/28 03:38:06;;;;;;;6.70;6.00;;;;;;;19.60;100.00;99972.63;105386;1259;99327;-80
2023/08/28 03:40:52;;;;;;;5.20;4.70;;;;;;;19.55;100.00;99973.26;105398;1264;99036;-80
2023/08/28 03:43:39;;;;;;;5.40;4.70;;;;;;;19.50;100.00;99971.05;105507;1257;97991;-79
2023/08/28 03:46:24;;;;;;;5.20;4.40;;;;;;;19.46;100.00;99980.52;105504;1257;97856;-79
2023/08/28 03:49:10;;;;;;;5.30;4.50;;;;;;;19.44;100.00;99978.88;105276;1264;102688;-79
2023/08/28 03:51:55;;;;;;;4.80;4.30;;;;;;;19.42;100.00;99979.09;105487;1261;99151;-78
2023/08/28 03:54:41;;;;;;;4.60;4.00;;;;;;;19.40;100.00;99989.05;105334;1265;98763;-79
2023/08/28 03:57:26;;;;;;;4.50;4.00;;;;;;;19.37;100.00;99995.82;105625;1258;97968;-82
2023/08/28 04:00:14;;;;;;;5.00;4.00;;;;;;;19.34;100.00;100003.98;106103;1258;99317;-80
2023/08/28 04:02:59;;;;;;;4.20;3.80;;;;;;;19.32;100.00;100005.47;105601;1264;102651;-78
2023/08/28 04:05:45;;;;;;;5.60;3.70;;;;;;;19.30;100.00;100007.08;105748;1261;100429;-79
2023/08/28 04:08:31;;;;;;;4.40;3.40;;;;;;;19.29;100.00;100010.64;105757;1258;98006;-80
2023/08/28 04:11:16;;;;;;;6.90;3.90;;;;;;;19.24;100.00;100014.40;105699;1258;97952;-80
2023/08/28 04:14:02;;;;;;;4.70;3.60;;;;;;;19.21;100.00;100012.70;105850;1257;98397;-79
2023/08/28 04:16:49;;;;;;;6.60;3.50;;;;;;;19.22;100.00;100013.02;105731;1259;101365;-80
2023/08/28 04:19:35;;;;;;;6.80;3.50;;;;;;;19.21;100.00;100008.89;105783;1264;99258;-80
2023/08/28 04:22:22;;;;;;;5.10;4.60;;;;;;;19.19;100.00;100009.86;105536;1263;99053;-81
2023/08/28 04:25:08;;;;;;;4.70;4.30;;;;;;;19.17;100.00;100006.02;105610;1261;99254;-80
2023/08/28 04:27:53;;;;;;;7.10;4.20;;;;;;;19.18;100.00;100010.39;105661;1263;99664;-80
2023/08/28 04:30:39;;;;;;;4.80;4.00;;;;;;;19.18;100.00;100005.34;106337;1257;102701;-80
2023/08/28 04:33:25;;;;;;;5.90;4.20;;;;;;;19.19;100.00;100006.38;105727;1261;100135;-79
2023/08/28 04:36:10;;;;;;;5.20;4.30;;;;;;;19.20;100.00;100002.16;105714;1261;98683;-81
2023/08/28 04:38:56;;;;;;;5.70;4.80;;;;;;;19.17;100.00;100002.80;105669;1262;98858;-79
2023/08/28 04:41:41;;;;;;;5.20;4.70;;;;;;;19.15;100.00;100012.85;105731;1261;98479;-80
2023/08/28 04:44:27;;;;;;;5.00;4.20;;;;;;;19.14;100.00;100025.91;105557;1259;101502;-80
2023/08/28 04:47:13;;;;;;;5.60;4.60;;;;;;;19.10;100.00;100030.17;105614;1258;100346;-79
2023/08/28 04:49:59;;;;;;;5.60;4.30;;;;;;;19.08;100.00;100029.29;105768;1258;99348;-80
2023/08/28 04:52:44;;;;;;;6.20;4.40;;;;;;;19.06;100.00;100028.61;105653;1258;98023;-80
2023/08/28 04:55:30;;;;;;;4.40;3.70;;;;;;;19.04;100.00;100031.09;105724;1257;98475;-80
2023/08/28 04:58:15;;;;;;;5.40;4.00;;;;;;;19.02;100.00;100031.62;105705;1262;102994;-80
2023/08/28 05:01:01;;;;;;;5.00;3.90;;;;;;;19.01;100.00;100038.34;105595;1258;100537;-80
2023/08/28 05:03:47;;;;;;;6.40;4.30;;;;;;;19.02;100.00;100052.63;105714;1262;99021;-80
2023/08/28 05:06:33;;;;;;;4.40;3.80;;;;;;;19.04;100.00;100058.84;105781;1262;98001;-80
2023/08/28 05:09:19;;;;;;;7.40;4.80;;;;;;;19.04;100.00;100067.52;105980;1258;97842;-79
2023/08/28 05:12:05;;;;;;;7.40;5.10;;;;;;;19.01;100.00;100078.46;105905;1258;102786;-80
2023/08/28 05:14:51;;;;;;;6.30;4.40;;;;;;;19.00;100.00;100085.95;105712;1258;99964;-80
2023/08/28 05:17:36;;;;;;;5.70;3.70;;;;;;;18.99;100.00;100088.98;105789;1257;98336;-80
2023/08/28 05:20:23;;;;;;;4.90;3.80;;;;;;;18.99;100.00;100091.85;105700;1262;97955;-80
2023/08/28 05:23:08;;;;;;;5.60;3.70;;;;;;;19.02;100.00;100091.39;105684;1258;98494;-80
2023/08/28 05:25:55;;;;;;;5.10;3.60;;;;;;;19.06;100.00;100091.77;105666;1263;101399;-80
2023/08/28 05:28:41;;;;;;;5.10;4.00;;;;;;;19.10;100.00;100088.11;105712;1261;100255;-79
2023/08/28 05:31:27;;;;;;;4.00;3.60;;;;;;;19.13;100.00;100087.38;105388;1258;98037;-79
2023/08/28 05:34:12;;;;;;;5.30;4.30;;;;;;;19.18;100.00;100082.01;105442;1260;98082;-79
2023/08/28 05:36:58;;;;;;;5.40;4.10;;;;;;;19.27;100.00;100076.78;105339;1261;98568;-78
2023/08/28 05:39:44;;;;;;;5.40;4.00;;;;;;;19.35;100.00;100069.78;105518;1257;101348;-80
2023/08/28 05:42:29;;;;;;;5.20;4.50;;;;;;;19.44;100.00;100063.89;105461;1264;100233;-80
2023/08/28 05:45:15;;;;;;;5.20;4.60;;;;;;;19.55;100.00;100059.98;106025;1263;97947;-81
2023/08/28 05:48:00;;;;;;;6.80;4.80;;;;;;;19.63;100.00;100054.99;106140;1263;98134;-80
2023/08/28 05:50:48;;;;;;;5.10;4.50;;;;;;;19.68;100.00;100057.92;106270;1258;98563;-81
2023/08/28 05:53:35;;;;;;;6.50;5.40;;;;;;;19.75;100.00;100054.77;106254;1258;101232;-82
2023/08/28 05:56:21;;;;;;;6.60;4.70;;;;;;;19.83;100.00;100055.33;106082;1257;99199;-82
2023/08/28 05:59:08;;;;;;;5.80;5.30;;;;;;;19.89;100.00;100052.11;106034;1258;98141;-81
2023/08/28 06:01:54;;;;;;;7.20;6.50;;;;;;;19.94;100.00;100040.67;106328;1257;98076;-82
2023/08/28 06:04:45;;;;;;;6.90;6.20;;;;;;;19.98;100.00;100033.42;106079;1258;97822;-81
2023/08/28 06:07:30;;;;;;;7.50;6.50;;;;;;;20.01;100.00;100032.73;106067;1258;102787;-82
2023/08/28 06:10:19;;;;;;;10.10;8.20;;;;;;;20.09;100.00;100047.89;106310;1258;99487;-80
2023/08/28 06:13:05;;;;;;;9.10;6.30;;;;;;;20.17;100.00;100057.95;106362;1263;97741;-81
2023/08/28 06:15:50;;;;;;;6.90;6.20;;;;;;;20.20;99.98;100073.28;106126;1258;97864;-81
2023/08/28 06:18:36;;;;;;;9.30;8.00;;;;;;;20.23;99.45;100075.38;106372;1258;98140;-81
2023/08/28 06:21:22;;;;;;;11.20;9.70;;;;;;;20.23;98.80;100065.09;106304;1260;102644;-80
2023/08/28 06:24:09;;;;;;;13.10;8.90;;;;;;;20.23;98.22;100059.91;106246;1261;99797;-81
2023/08/28 06:26:55;;;;;;;9.20;6.90;;;;;;;20.26;98.05;100067.23;106139;1258;97943;-82
2023/08/28 06:29:41;;;;;;;8.00;7.10;;;;;;;20.33;98.57;100077.95;106226;1258;97960;-81
2023/08/28 06:32:27;;;;;;;10.80;6.20;;;;;;;20.42;98.51;100083.00;106254;1259;97978;-80
2023/08/28 06:35:12;;;;;;;7.60;6.50;;;;;;;20.50;98.47;100086.37;106319;1261;102649;-81
2023/08/28 06:37:58;;;;;;;7.00;6.30;;;;;;;20.55;98.24;100089.45;106009;1257;100414;-79
2023/08/28 06:40:49;;;;;;;6.30;5.40;;;;;;;20.62;98.44;100087.91;106182;1258;97963;-80
2023/08/28 06:43:35;;;;;;;7.70;5.80;;;;;;;20.70;97.82;100084.40;106096;1257;97947;-81
2023/08/28 06:46:20;;;;;;;8.30;5.60;;;;;;;20.78;97.90;100089.17;106246;1258;97997;-81
2023/08/28 06:49:06;;;;;;;7.90;6.50;;;;;;;20.89;97.58;100087.64;106365;1263;103061;-81
2023/08/28 06:51:51;;;;;;;7.80;6.50;;;;;;;20.95;96.48;100086.73;106137;1257;100938;-82
2023/08/28 06:54:37;;;;;;;7.80;5.10;;;;;;;20.96;96.28;100089.95;106369;1261;97928;-82
2023/08/28 06:57:22;;;;;;;6.20;5.60;;;;;;;21.04;95.92;100092.46;106146;1261;97924;-81
2023/08/28 07:00:08;;;;;;;7.00;5.70;;;;;;;21.12;95.68;100100.13;106362;1263;98411;-81
2023/08/28 07:02:54;;;;;;;6.30;5.30;;;;;;;21.16;94.87;100111.36;106388;1262;101453;-80
2023/08/28 07:05:40;;;;;;;6.20;4.90;;;;;;;21.17;93.99;100106.84;106183;1258;99218;-79
2023/08/28 07:08:25;;;;;;;5.40;4.70;;;;;;;21.12;92.69;100107.05;106415;1258;97848;-81
2023/08/28 07:11:11;;;;;;;5.60;4.70;;;;;;;21.07;92.66;100113.40;106356;1260;97975;-82
2023/08/28 07:13:58;;;;;;;5.30;4.80;;;;;;;21.10;93.52;100119.13;106483;1260;97998;-82
2023/08/28 07:16:43;;;;;;;7.00;5.10;;;;;;;21.13;93.76;100118.64;106292;1263;101337;-81
2023/08/28 07:19:29;;;;;;;5.00;4.50;;;;;;;21.07;92.52;100119.39;106588;1261;99167;-81
2023/08/28 07:22:15;;;;;;;5.60;5.00;;;;;;;21.03;92.11;100116.74;106458;1260;99606;-80
2023/08/28 07:25:01;;;;;;;5.60;4.60;;;;;;;21.04;92.01;100121.05;106429;1259;97942;-80
2023/08/28 07:27:47;;;;;;;5.30;4.80;;;;;;;21.09;92.71;100118.14;106260;1258;98666;-82
2023/08/28 07:30:33;;;;;;;4.80;4.40;;;;;;;21.14;91.88;100114.29;106489;1258;102652;-81
2023/08/28 07:33:18;;;;;;;5.20;4.40;;;;;;;21.16;91.82;100119.42;106346;1258;99251;-81
2023/08/28 07:36:03;;;;;;;7.10;4.80;;;;;;;21.21;91.41;100122.37;106147;1263;99048;-82
2023/08/28 07:38:49;;;;;;;6.30;4.40;;;;;;;21.26;91.26;100123.16;106325;1261;98058;-82
2023/08/28 07:41:35;;;;;;;5.80;4.50;;;;;;;21.32;91.51;100118.15;106309;1261;96417;-82
2023/08/28 07:44:20;;;;;;;7.30;4.90;;;;;;;21.42;91.13;100115.30;106178;1261;101363;-80
2023/08/28 07:47:06;;;;;;;5.80;4.80;;;;;;;21.50;91.01;100120.37;106234;1261;99815;-81
2023/08/28 07:49:53;;;;;;;9.70;4.80;;;;;;;21.53;90.60;100123.27;107019;1260;97896;-81
2023/08/28 07:52:39;;;;;;;5.80;4.30;;;;;;;21.50;90.15;100122.13;107274;1258;98045;-87
2023/08/28 07:55:25;;;;;;;4.90;4.50;;;;;;;21.47;90.20;100121.36;106780;1262;97905;-78
2023/08/28 07:58:11;;;;;;;5.50;4.90;;;;;;;21.49;89.95;100117.71;106153;1257;102134;-79
2023/08/28 08:00:56;;;;;;;5.30;4.80;;;;;;;21.58;89.30;100112.88;106109;1259;99073;-78
2023/08/28 08:03:42;;;;;;;5.10;4.60;;;;;;;21.63;89.43;100115.70;106542;1258;98515;-78
2023/08/28 08:06:27;;;;;;;5.90;4.90;;;;;;;21.68;89.41;100111.35;106614;1257;97852;-80
2023/08/28 08:09:13;;;;;;;7.00;4.90;;;;;;;21.64;88.29;100110.48;106462;1257;97984;-79
2023/08/28 08:11:59;;;;;;;5.60;4.90;;;;;;;21.55;87.82;100112.31;105425;1261;102413;-79
2023/08/28 08:14:44;;;;;;;5.30;4.80;;;;;;;21.50;87.86;100115.69;105258;1261;99117;-77
2023/08/28 08:17:30;;;;;;;5.70;4.30;;;;;;;21.51;88.28;100113.35;105120;1263;97953;-77
2023/08/28 08:20:15;;;;;;;5.00;4.50;;;;;;;21.59;88.84;100105.73;105214;1260;98325;-79
2023/08/28 08:23:01;;;;;;;5.60;4.90;;;;;;;21.65;87.89;100103.06;105568;1261;99760;-79
2023/08/28 08:25:46;;;;;;;5.20;4.40;;;;;;;21.70;88.02;100100.51;105684;1261;102140;-81
2023/08/28 08:28:32;;;;;;;5.10;4.40;;;;;;;21.72;87.23;100097.19;106003;1257;99197;-81
2023/08/28 08:31:18;;;;;;;6.20;4.40;;;;;;;21.74;87.08;100114.42;105883;1260;98070;-85
2023/08/28 08:34:04;;;;;;;7.50;5.00;;;;;;;21.77;87.48;100114.69;105785;1258;98121;-83
2023/08/28 08:36:50;;;;;;;5.10;4.60;;;;;;;21.82;87.74;100107.23;105883;1258;99559;-82
2023/08/28 08:39:36;;;;;;;7.30;5.20;;;;;;;21.88;87.76;100108.29;106051;1258;102095;-80
2023/08/28 08:42:25;;;;;;;6.60;4.60;;;;;;;21.92;86.97;100112.83;106421;1258;100327;-87
2023/08/28 08:45:11;;;;;;;5.30;4.30;;;;;;;21.93;86.67;100115.01;106661;1258;99097;-83
2023/08/28 08:48:03;;;;;;;4.30;3.90;;;;;;;21.92;86.52;100114.45;106202;1264;98825;-83
2023/08/28 08:50:58;;;;;;;4.80;4.30;;;;;;;21.84;85.51;100109.75;106564;1263;98994;-90
2023/08/28 08:53:52;;;;;;;4.50;4.00;;;;;;;21.83;85.41;100108.56;107201;1260;102682;-89
2023/08/28 08:57:00;;;;;;;4.50;4.10;;;;;;;21.93;85.72;100103.27;106836;1257;99220;-86
2023/08/28 08:59:52;;;;;;;4.20;3.80;;;;;;;21.98;85.14;100109.55;106333;1258;97866;-79
2023/08/28 09:02:40;;;;;;;4.40;3.90;;;;;;;21.97;84.61;100119.15;106399;1258;98010;-80
2023/08/28 09:05:26;;;;;;;5.00;4.10;;;;;;;21.96;84.10;100114.73;106254;1257;98410;-79
2023/08/28 09:08:14;;;;;;;4.30;3.90;;;;;;;21.97;84.19;100120.63;105648;1258;101411;-80
2023/08/28 09:11:00;;;;;;;4.40;3.90;;;;;;;21.99;83.69;100122.70;105661;1258;99235;-79
2023/08/28 09:13:46;;;;;;;3.60;3.10;;;;;;;21.99;82.88;100124.28;105760;1258;97711;-79
2023/08/28 09:16:34;;;;;;;3.90;3.50;;;;;;;21.96;81.77;100127.66;105216;1263;98043;-77
2023/08/28 09:19:20;;;;;;;3.80;3.40;;;;;;;21.94;81.84;100136.27;105648;1257;98782;-78
2023/08/28 09:22:06;;;;;;;5.70;3.30;;;;;;;21.92;81.48;100141.17;105154;1264;103084;-78
2023/08/28 09:24:52;;;;;;;3.40;2.90;;;;;;;21.88;81.51;100135.29;105640;1258;100549;-78
2023/08/28 09:27:43;;;;;;;5.50;3.40;;;;;;;21.82;81.54;100122.34;106273;1259;98985;-82
2023/08/28 09:30:38;;;;;;;5.30;3.20;;;;;;;21.75;81.90;100111.36;105669;1258;98052;-77
2023/08/28 09:33:23;;;;;;;5.00;3.30;;;;;;;21.67;82.28;100115.23;105186;1261;97965;-78
2023/08/28 09:36:17;;;;;;;3.80;3.50;;;;;;;21.66;82.45;100130.98;105866;1259;103831;-79
2023/08/28 09:39:05;;;;;;;3.60;3.30;;;;;;;21.68;82.22;100127.22;106051;1263;100356;-78
2023/08/28 09:41:51;;;;;;;5.90;3.60;;;;;;;21.65;82.29;100130.60;105140;1263;98496;-78
2023/08/28 09:44:37;;;;;;;3.60;3.10;;;;;;;21.65;82.28;100142.81;105188;1263;97966;-78
2023/08/28 09:47:23;;;;;;;4.80;3.90;;;;;;;21.65;82.77;100150.23;105148;1263;98513;-78
2023/08/28 09:50:09;;;;;;;4.50;3.60;;;;;;;21.61;82.37;100161.98;105401;1258;102672;-80
2023/08/28 09:53:05;;;;;;;5.30;4.10;;;;;;;21.62;82.85;100168.03;106338;1264;100192;-80
2023/08/28 09:55:52;;;;;;;4.60;3.80;;;;;;;21.68;83.46;100162.22;105946;1258;107655;-78
2023/08/28 09:58:37;;;;;;;5.20;3.90;;;;;;;21.71;83.02;100156.18;105277;1264;98616;-78
2023/08/28 10:01:27;;;;;;;4.10;3.50;;;;;;;21.75;82.81;100157.66;105672;1262;97976;-79
2023/08/28 10:04:14;;;;;;;3.80;3.50;;;;;;;21.78;82.58;100161.15;105376;1258;103595;-78
2023/08/28 10:07:02;;;;;;;5.60;3.80;;;;;;;21.86;83.67;100159.83;107348;1258;101493;-78
2023/08/28 10:09:53;;;;;;;4.00;3.50;;;;;;;21.96;83.06;100163.92;106667;1258;97779;-78
2023/08/28 10:12:40;;;;;;;4.60;3.40;;;;;;;22.03;82.84;100162.83;105083;1264;98597;-78
2023/08/28 10:15:27;;;;;;;5.70;3.60;;;;;;;22.13;83.63;100161.48;105216;1261;98485;-77
2023/08/28 10:18:20;;;;;;;3.70;3.40;;;;;;;22.25;82.43;100156.34;105416;1259;102332;-79
2023/08/28 10:21:07;;;;;;;4.00;3.60;;;;;;;22.29;81.54;100150.73;105442;1258;99281;-79
2023/08/28 10:23:53;;;;;;;3.30;3.00;;;;;;;22.31;80.82;100142.70;105568;1261;97965;-79
2023/08/28 10:26:42;;;;;;;4.60;3.10;;;;;;;22.33;78.83;100145.86;105609;1258;98061;-78
2023/08/28 10:29:29;;;;;;;3.40;2.90;;;;;;;22.33;78.10;100147.34;105697;1258;98471;-80
2023/08/28 10:32:14;;;;;;;3.30;2.90;;;;;;;22.34;77.43;100159.40;106036;1258;101439;-79
2023/08/28 10:35:01;;;;;;;3.70;3.10;;;;;;;22.43;77.90;100168.61;105781;1265;99096;-79
2023/08/28 10:37:49;;;;;;;5.60;4.10;;;;;;;22.51;77.19;100174.73;105873;1258;97969;-79
2023/08/28 10:40:35;;;;;;;5.60;3.00;;;;;;;22.64;77.19;100176.20;105470;1258;97932;-79
2023/08/28 10:43:23;;;;;;;3.50;3.20;;;;;;;22.77;76.68;100175.03;105766;1258;98734;-80
2023/08/28 10:46:09;;;;;;;3.50;3.20;;;;;;;22.82;75.79;100176.98;105651;1258;101423;-80
2023/08/28 10:49:00;;;;;;;6.30;3.30;;;;;;;22.85;75.42;100179.55;106138;1262;99192;-80
2023/08/28 10:51:46;;;;;;;4.30;3.90;;;;;;;22.88;75.21;100177.52;105013;1264;97905;-77
2023/08/28 10:54:46;;;;;;;3.60;3.10;;;;;;;22.91;74.63;100172.09;105149;1261;97889;-78
2023/08/28 10:57:32;;;;;;;4.60;3.30;;;;;;;22.94;75.19;100167.84;105876;1258;98400;-78
2023/08/28 11:00:18;;;;;;;3.40;3.10;;;;;;;23.03;75.18;100170.37;105201;1258;101357;-82
2023/08/28 11:03:15;;;;;;;3.90;3.10;;;;;;;23.16;75.73;100166.00;105840;1263;99146;-82
2023/08/28 11:06:45;;;;;;;5.20;2.80;;;;;;;23.27;74.68;100163.98;105813;1259;100417;-81
2023/08/28 11:09:33;;;;;;;9.60;3.20;;;;;;;23.27;72.76;100174.31;105966;1262;97884;-81
2023/08/28 11:12:18;;;;;;;2.90;2.70;;;;;;;23.20;72.50;100179.15;105932;1261;98433;-81
2023/08/28 11:15:04;;;;;;;5.00;2.60;;;;;;;23.23;71.36;100182.85;106199;1257;101450;-80
2023/08/28 11:18:23;;;;;;;4.00;2.40;;;;;;;23.27;71.22;100189.51;105907;1261;99196;-80
2023/08/28 11:21:09;;;;;;;3.50;2.70;;;;;;;23.39;72.47;100186.20;105869;1258;98091;-80
2023/08/28 11:23:55;;;;;;;6.50;2.60;;;;;;;23.52;71.58;100174.11;105764;1262;98095;-81
2023/08/28 11:26:44;;;;;;;4.40;2.80;;;;;;;23.55;70.01;100168.08;106084;1262;99095;-83
2023/08/28 11:29:32;;;;;;;5.30;2.70;;;;;;;23.54;69.73;100154.91;106040;1261;101434;-80
2023/08/28 11:32:18;;;;;;;3.20;2.70;;;;;;;23.50;69.31;100132.95;105837;1264;100435;-81
2023/08/28 11:35:05;;;;;;;3.80;3.00;;;;;;;23.49;69.08;100125.41;106232;1258;97863;-81
2023/08/28 11:37:53;;;;;;;3.70;2.70;;;;;;;23.55;69.36;100122.86;106011;1258;98374;-81
2023/08/28 11:40:38;;;;;;;4.60;2.70;;;;;;;23.62;69.34;100108.80;106269;1257;97955;-81
2023/08/28 11:43:24;;;;;;;2.90;2.30;;;;;;;23.64;67.98;100098.57;106148;1258;102621;-82
2023/08/28 11:46:12;;;;;;;2.60;2.30;;;;;;;23.62;66.43;100080.59;106137;1257;100352;-84
2023/08/28 11:48:58;;;;;;;2.20;1.80;;;;;;;23.63;65.85;100075.11;106048;1259;97889;-83
2023/08/28 11:51:43;;;;;;;3.00;2.20;;;;;;;23.70;65.77;100071.99;105839;1260;98100;-82
2023/08/28 11:54:32;;;;;;;4.50;2.20;;;;;;;23.75;65.79;100076.44;106128;1258;98612;-85
2023/08/28 11:57:19;;;;;;;2.60;2.00;;;;;;;23.79;65.79;100089.65;106070;1262;101437;-82
2023/08/28 12:00:10;;;;;;;2.80;2.40;;;;;;;23.80;65.25;100112.71;105803;1263;101466;-84
2023/08/28 12:02:59;;;;;;;4.60;2.50;;;;;;;23.75;64.67;100114.08;106352;1258;98414;-83
2023/08/28 12:05:45;;;;;;;3.00;2.00;;;;;;;23.75;65.58;100122.06;106041;1261;97904;-82
2023/08/28 12:08:31;;;;;;;2.30;1.80;;;;;;;23.81;66.27;100134.11;106011;1258;98582;-82
2023/08/28 12:11:20;;;;;;;3.30;2.10;;;;;;;23.85;64.88;100135.73;105871;1258;103861;-83
2023/08/28 12:14:20;;;;;;;3.10;1.90;;;;;;;23.83;64.11;100132.19;105912;1258;99502;-85
2023/08/28 12:17:05;;;;;;;3.20;2.40;;;;;;;23.82;64.45;100134.42;105907;1264;97982;-80
2023/08/28 12:19:51;;;;;;;3.70;1.60;;;;;;;23.86;65.23;100139.88;106164;1258;98453;-79
2023/08/28 12:22:44;;;;;;;3.70;2.20;;;;;;;23.87;65.48;100146.15;106029;1263;99060;-79
2023/08/28 12:25:35;;;;;;;2.30;2.10;;;;;;;23.89;64.51;100156.54;105650;1262;101988;-83
2023/08/28 12:28:26;;;;;;;3.80;2.30;;;;;;;23.90;63.70;100168.58;106022;1262;99136;-78
2023/08/28 12:31:13;;;;;;;3.60;1.90;;;;;;;23.88;63.29;100171.15;105533;1263;98089;-80
2023/08/28 12:34:06;;;;;;;3.10;2.50;;;;;;;23.88;64.31;100163.66;105566;1264;97901;-82
2023/08/28 12:36:52;;;;;;;3.70;2.70;;;;;;;23.90;63.60;100157.25;106253;1263;98464;-80
2023/08/28 12:39:49;;;;;;;3.80;3.20;;;;;;;23.90;63.05;100154.40;106366;1261;101407;-79
2023/08/28 12:42:39;;;;;;;5.50;2.90;;;;;;;23.93;63.86;100155.20;106452;1258;99229;-79
2023/08/28 12:45:24;;;;;;;3.80;2.90;;;;;;;23.96;63.20;100148.66;105375;1258;104317;-77